Rancho Mirage, CA (92270)

2:18 PM PDT on August 29, 2015 (GMT -0700)
Date Palm Estates WAGS | | Change Station
CLOSE
Current Station
Personal Weather Station
Location: Cathedral City, CA
Elevation: 297 ft
Nearby Weather Stations

Elev 297 ft 33.79 °N, 116.45 °W | Updated 4 seconds ago

Clear
Clear
109.8 °F
Feels Like 106 °F
N
1.8
Wind Variable Wind from WNW
Gusts 2.5 mph

Today
High -- | Low -- °F
--% Chance of Precip.
Yesterday
High -- | Low -- °F
Precip. -- in
6:17 AM 7:15 PM
Full, 100% visible
Pressure 29.75 in
Visibility 10.0 miles
Clouds Clear
Heat Index 106 °F
Dew Point 46 °F
Humidity 12%
Rainfall 0.00 in
Snow Depth Not available.
UV 5.0 out of 12
Pollen 5.50 out of 12
Air Quality Not available.
Flu Activity Not available.
METAR KPSP 292053Z 30015G22KT 10SM CLR 45/08 A2977 RMK AO2 SLP074 T04500078 58020
Pressure 29.75 in
Visibility 10.0 miles
Clouds Clear
Heat Index 106 °F
Dew Point 46 °F
Humidity 12%
Rainfall 0.00 in
Snow Depth Not available.
UV 5.0 out of 12
Pollen 5.50 out of 12
Air Quality Not available.
Flu Activity Not available.
METAR KPSP 292053Z 30015G22KT 10SM CLR 45/08 A2977 RMK AO2 SLP074 T04500078 58020

10-Day Weather Forecast

×

Almanac

Astronomy

Aug. 29, 2015 Rise Set
Actual Time
Civil Twilight
Nautical Twilight
Astronomical Twilight
Moon
Length of Visible Light
Length of Day
Tomorrow will be .
, % of the Moon is Illuminated

Today's Extremes

State Highs State Lows

Community

WunderPhotos

Upload Photos

1,850,802 photos uploaded!

WunderBlogs® & News

Nearby

Air Quality

  Air Quality AQ Index Pollutant
Not available.

Snow Depth

Station Depth Elevation

Earthquake Activity

City Distance Mag. Time & Date
Minimum magnitude displayed is 2.5.

Coastal Water Temperatures

Place Temperature

Stations

Nearby Weather Stations

Station Location Temp. Windchill Dew Point Humidity Wind Precip. Elev Updated Type